sensor_id;sensor_type;location;lat;lon;timestamp;temperature;humidity
4306;DHT22;2166;49.926;8.608;2023-09-19T00:00:47;16.70;67.80
4306;DHT22;2166;49.926;8.608;2023-09-19T00:03:16;16.70;67.80
4306;DHT22;2166;49.926;8.608;2023-09-19T00:05:44;16.70;67.80
4306;DHT22;2166;49.926;8.608;2023-09-19T00:08:14;16.70;67.80
4306;DHT22;2166;49.926;8.608;2023-09-19T00:10:43;16.70;67.80
4306;DHT22;2166;49.926;8.608;2023-09-19T00:13:12;16.70;67.70
4306;DHT22;2166;49.926;8.608;2023-09-19T00:15:44;16.70;67.70
4306;DHT22;2166;49.926;8.608;2023-09-19T00:18:17;16.80;67.70
4306;DHT22;2166;49.926;8.608;2023-09-19T00:20:49;16.90;67.60
4306;DHT22;2166;49.926;8.608;2023-09-19T00:23:19;16.90;67.60
4306;DHT22;2166;49.926;8.608;2023-09-19T00:25:48;16.90;67.50
4306;DHT22;2166;49.926;8.608;2023-09-19T00:28:18;17.00;67.50
4306;DHT22;2166;49.926;8.608;2023-09-19T00:30:48;17.10;67.50
4306;DHT22;2166;49.926;8.608;2023-09-19T00:33:18;17.10;67.40
4306;DHT22;2166;49.926;8.608;2023-09-19T00:35:48;17.20;67.30
4306;DHT22;2166;49.926;8.608;2023-09-19T00:38:16;17.20;67.20
4306;DHT22;2166;49.926;8.608;2023-09-19T00:40:48;17.20;67.10
4306;DHT22;2166;49.926;8.608;2023-09-19T00:43:18;17.30;67.00
4306;DHT22;2166;49.926;8.608;2023-09-19T00:45:50;17.30;67.00
4306;DHT22;2166;49.926;8.608;2023-09-19T00:48:20;17.30;67.00
4306;DHT22;2166;49.926;8.608;2023-09-19T00:50:50;17.40;66.90
4306;DHT22;2166;49.926;8.608;2023-09-19T00:53:22;17.50;67.00
4306;DHT22;2166;49.926;8.608;2023-09-19T00:55:53;17.50;66.90
4306;DHT22;2166;49.926;8.608;2023-09-19T00:58:23;17.50;67.00
4306;DHT22;2166;49.926;8.608;2023-09-19T01:00:54;17.50;66.90
4306;DHT22;2166;49.926;8.608;2023-09-19T01:03:23;17.50;67.00
4306;DHT22;2166;49.926;8.608;2023-09-19T01:05:51;17.50;67.00
4306;DHT22;2166;49.926;8.608;2023-09-19T01:08:20;17.40;67.00
4306;DHT22;2166;49.926;8.608;2023-09-19T01:10:54;17.40;67.00
4306;DHT22;2166;49.926;8.608;2023-09-19T01:13:30;17.40;67.00
4306;DHT22;2166;49.926;8.608;2023-09-19T01:16:11;17.40;67.00
4306;DHT22;2166;49.926;8.608;2023-09-19T01:18:47;17.40;67.00
4306;DHT22;2166;49.926;8.608;2023-09-19T01:21:22;17.40;67.00
4306;DHT22;2166;49.926;8.608;2023-09-19T01:24:13;17.30;67.10
4306;DHT22;2166;49.926;8.608;2023-09-19T01:27:06;17.30;67.10
4306;DHT22;2166;49.926;8.608;2023-09-19T01:29:44;17.30;67.20
4306;DHT22;2166;49.926;8.608;2023-09-19T01:32:17;17.30;67.10
4306;DHT22;2166;49.926;8.608;2023-09-19T01:34:50;17.40;67.10
4306;DHT22;2166;49.926;8.608;2023-09-19T01:37:21;17.40;67.10
4306;DHT22;2166;49.926;8.608;2023-09-19T01:39:56;17.50;67.10
4306;DHT22;2166;49.926;8.608;2023-09-19T01:42:31;17.50;67.00
4306;DHT22;2166;49.926;8.608;2023-09-19T01:45:08;17.50;67.10
4306;DHT22;2166;49.926;8.608;2023-09-19T01:47:48;17.60;67.10
4306;DHT22;2166;49.926;8.608;2023-09-19T01:50:28;17.50;67.00
4306;DHT22;2166;49.926;8.608;2023-09-19T01:53:02;17.50;67.00
4306;DHT22;2166;49.926;8.608;2023-09-19T01:55:36;17.50;67.10
4306;DHT22;2166;49.926;8.608;2023-09-19T01:58:08;17.50;67.10
4306;DHT22;2166;49.926;8.608;2023-09-19T02:00:40;17.40;67.10
4306;DHT22;2166;49.926;8.608;2023-09-19T02:03:11;17.30;67.20
4306;DHT22;2166;49.926;8.608;2023-09-19T02:05:41;17.30;67.20
4306;DHT22;2166;49.926;8.608;2023-09-19T02:08:16;17.20;67.40
4306;DHT22;2166;49.926;8.608;2023-09-19T02:10:45;17.20;67.40
4306;DHT22;2166;49.926;8.608;2023-09-19T02:13:16;17.20;67.50
4306;DHT22;2166;49.926;8.608;2023-09-19T02:15:46;17.10;67.50
4306;DHT22;2166;49.926;8.608;2023-09-19T02:18:16;17.10;67.50
4306;DHT22;2166;49.926;8.608;2023-09-19T02:20:45;17.10;67.50
4306;DHT22;2166;49.926;8.608;2023-09-19T02:23:15;17.00;67.50
4306;DHT22;2166;49.926;8.608;2023-09-19T02:25:51;17.00;67.60
4306;DHT22;2166;49.926;8.608;2023-09-19T02:28:21;16.90;67.60
4306;DHT22;2166;49.926;8.608;2023-09-19T02:30:50;16.80;67.80
4306;DHT22;2166;49.926;8.608;2023-09-19T02:33:20;16.70;67.70
4306;DHT22;2166;49.926;8.608;2023-09-19T02:35:55;16.70;67.80
4306;DHT22;2166;49.926;8.608;2023-09-19T02:38:24;16.60;68.00
4306;DHT22;2166;49.926;8.608;2023-09-19T02:40:53;16.50;68.10
4306;DHT22;2166;49.926;8.608;2023-09-19T02:43:23;16.40;68.20
4306;DHT22;2166;49.926;8.608;2023-09-19T02:45:51;16.40;68.20
4306;DHT22;2166;49.926;8.608;2023-09-19T02:48:22;16.40;68.30
4306;DHT22;2166;49.926;8.608;2023-09-19T02:50:51;16.30;68.30
4306;DHT22;2166;49.926;8.608;2023-09-19T02:53:20;16.30;68.40
4306;DHT22;2166;49.926;8.608;2023-09-19T02:55:49;16.20;68.30
4306;DHT22;2166;49.926;8.608;2023-09-19T02:58:21;16.20;68.40
4306;DHT22;2166;49.926;8.608;2023-09-19T03:00:52;16.20;68.40
4306;DHT22;2166;49.926;8.608;2023-09-19T03:03:25;16.10;68.50
4306;DHT22;2166;49.926;8.608;2023-09-19T03:05:56;16.10;68.50
4306;DHT22;2166;49.926;8.608;2023-09-19T03:08:26;16.10;68.60
4306;DHT22;2166;49.926;8.608;2023-09-19T03:10:54;16.00;68.70
4306;DHT22;2166;49.926;8.608;2023-09-19T03:13:22;16.00;68.70
4306;DHT22;2166;49.926;8.608;2023-09-19T03:15:53;16.00;68.70
4306;DHT22;2166;49.926;8.608;2023-09-19T03:18:28;16.00;68.70
4306;DHT22;2166;49.926;8.608;2023-09-19T03:20:57;16.00;68.80
4306;DHT22;2166;49.926;8.608;2023-09-19T03:23:29;15.90;68.70
4306;DHT22;2166;49.926;8.608;2023-09-19T03:25:57;15.90;68.70
4306;DHT22;2166;49.926;8.608;2023-09-19T03:28:26;15.80;68.60
4306;DHT22;2166;49.926;8.608;2023-09-19T03:30:59;15.80;68.60
4306;DHT22;2166;49.926;8.608;2023-09-19T03:33:31;15.80;68.50
4306;DHT22;2166;49.926;8.608;2023-09-19T03:36:01;15.70;68.40
4306;DHT22;2166;49.926;8.608;2023-09-19T03:38:33;15.70;68.50
4306;DHT22;2166;49.926;8.608;2023-09-19T03:41:02;15.60;68.50
4306;DHT22;2166;49.926;8.608;2023-09-19T03:43:33;15.60;68.60
4306;DHT22;2166;49.926;8.608;2023-09-19T03:46:03;15.60;68.70
4306;DHT22;2166;49.926;8.608;2023-09-19T03:48:34;15.60;68.70
4306;DHT22;2166;49.926;8.608;2023-09-19T03:51:03;15.60;68.70
4306;DHT22;2166;49.926;8.608;2023-09-19T03:53:32;15.50;68.60
4306;DHT22;2166;49.926;8.608;2023-09-19T03:56:00;15.50;68.60
4306;DHT22;2166;49.926;8.608;2023-09-19T03:58:32;15.40;68.70
4306;DHT22;2166;49.926;8.608;2023-09-19T04:01:05;15.40;68.80
4306;DHT22;2166;49.926;8.608;2023-09-19T04:03:35;15.40;69.00
4306;DHT22;2166;49.926;8.608;2023-09-19T04:06:13;15.40;69.00
4306;DHT22;2166;49.926;8.608;2023-09-19T04:08:43;15.40;68.90
4306;DHT22;2166;49.926;8.608;2023-09-19T04:11:13;15.40;69.10
4306;DHT22;2166;49.926;8.608;2023-09-19T04:13:41;15.40;69.10
4306;DHT22;2166;49.926;8.608;2023-09-19T04:16:09;15.30;69.20
4306;DHT22;2166;49.926;8.608;2023-09-19T04:18:40;15.30;69.30
4306;DHT22;2166;49.926;8.608;2023-09-19T04:21:09;15.20;69.40
4306;DHT22;2166;49.926;8.608;2023-09-19T04:23:37;15.20;69.50
4306;DHT22;2166;49.926;8.608;2023-09-19T04:26:05;15.20;69.00
4306;DHT22;2166;49.926;8.608;2023-09-19T04:28:34;15.30;69.20
4306;DHT22;2166;49.926;8.608;2023-09-19T04:31:05;15.50;69.20
4306;DHT22;2166;49.926;8.608;2023-09-19T04:33:35;15.50;69.10
4306;DHT22;2166;49.926;8.608;2023-09-19T04:36:05;15.60;69.10
4306;DHT22;2166;49.926;8.608;2023-09-19T04:38:54;15.70;69.00
4306;DHT22;2166;49.926;8.608;2023-09-19T04:41:22;15.70;68.90
4306;DHT22;2166;49.926;8.608;2023-09-19T04:43:51;15.80;68.80
4306;DHT22;2166;49.926;8.608;2023-09-19T04:46:19;15.80;68.60
4306;DHT22;2166;49.926;8.608;2023-09-19T04:48:49;15.80;68.30
4306;DHT22;2166;49.926;8.608;2023-09-19T04:51:18;15.80;68.30
4306;DHT22;2166;49.926;8.608;2023-09-19T04:53:47;15.80;68.20
4306;DHT22;2166;49.926;8.608;2023-09-19T04:56:16;15.80;68.20
4306;DHT22;2166;49.926;8.608;2023-09-19T04:58:44;15.80;68.80
4306;DHT22;2166;49.926;8.608;2023-09-19T05:01:12;15.90;68.70
4306;DHT22;2166;49.926;8.608;2023-09-19T05:03:42;15.90;68.60
4306;DHT22;2166;49.926;8.608;2023-09-19T05:06:11;15.90;68.30
4306;DHT22;2166;49.926;8.608;2023-09-19T05:08:41;16.00;68.20
4306;DHT22;2166;49.926;8.608;2023-09-19T05:11:09;16.00;68.00
4306;DHT22;2166;49.926;8.608;2023-09-19T05:13:38;16.00;67.60
4306;DHT22;2166;49.926;8.608;2023-09-19T05:16:06;16.10;67.40
4306;DHT22;2166;49.926;8.608;2023-09-19T05:18:37;16.10;67.40
4306;DHT22;2166;49.926;8.608;2023-09-19T05:21:05;16.10;67.40
4306;DHT22;2166;49.926;8.608;2023-09-19T05:23:34;16.10;67.30
4306;DHT22;2166;49.926;8.608;2023-09-19T05:26:05;16.10;67.40
4306;DHT22;2166;49.926;8.608;2023-09-19T05:28:34;16.10;67.40
4306;DHT22;2166;49.926;8.608;2023-09-19T05:31:02;16.00;67.50
4306;DHT22;2166;49.926;8.608;2023-09-19T05:33:31;16.00;67.50
4306;DHT22;2166;49.926;8.608;2023-09-19T05:36:00;16.00;67.60
4306;DHT22;2166;49.926;8.608;2023-09-19T05:38:28;16.00;67.60
4306;DHT22;2166;49.926;8.608;2023-09-19T05:40:56;16.00;67.60
4306;DHT22;2166;49.926;8.608;2023-09-19T05:43:26;16.00;67.60
4306;DHT22;2166;49.926;8.608;2023-09-19T05:45:54;16.10;67.50
4306;DHT22;2166;49.926;8.608;2023-09-19T05:48:23;16.10;67.50
4306;DHT22;2166;49.926;8.608;2023-09-19T05:50:52;16.20;67.40
4306;DHT22;2166;49.926;8.608;2023-09-19T05:53:20;16.20;67.30
4306;DHT22;2166;49.926;8.608;2023-09-19T05:55:50;16.30;67.30
4306;DHT22;2166;49.926;8.608;2023-09-19T05:58:20;16.40;67.20
4306;DHT22;2166;49.926;8.608;2023-09-19T06:00:50;16.50;67.30
4306;DHT22;2166;49.926;8.608;2023-09-19T06:03:19;16.60;67.10
4306;DHT22;2166;49.926;8.608;2023-09-19T06:05:47;16.70;67.20
4306;DHT22;2166;49.926;8.608;2023-09-19T06:08:16;16.80;67.10
4306;DHT22;2166;49.926;8.608;2023-09-19T06:10:45;16.90;67.30
4306;DHT22;2166;49.926;8.608;2023-09-19T06:13:14;17.10;67.40
4306;DHT22;2166;49.926;8.608;2023-09-19T06:15:43;17.20;67.80
4306;DHT22;2166;49.926;8.608;2023-09-19T06:18:14;17.20;68.30
4306;DHT22;2166;49.926;8.608;2023-09-19T06:20:46;17.30;68.00
4306;DHT22;2166;49.926;8.608;2023-09-19T06:23:15;17.40;68.30
4306;DHT22;2166;49.926;8.608;2023-09-19T06:25:44;17.60;68.90
4306;DHT22;2166;49.926;8.608;2023-09-19T06:28:12;17.80;69.50
4306;DHT22;2166;49.926;8.608;2023-09-19T06:30:43;18.00;70.00
4306;DHT22;2166;49.926;8.608;2023-09-19T06:33:13;18.20;70.60
4306;DHT22;2166;49.926;8.608;2023-09-19T06:35:45;18.30;70.80
4306;DHT22;2166;49.926;8.608;2023-09-19T06:38:14;18.40;71.00
4306;DHT22;2166;49.926;8.608;2023-09-19T06:40:46;18.40;71.30
4306;DHT22;2166;49.926;8.608;2023-09-19T06:43:14;18.40;71.30
4306;DHT22;2166;49.926;8.608;2023-09-19T06:45:42;18.50;71.40
4306;DHT22;2166;49.926;8.608;2023-09-19T06:48:11;18.40;71.70
4306;DHT22;2166;49.926;8.608;2023-09-19T06:50:41;18.30;71.10
4306;DHT22;2166;49.926;8.608;2023-09-19T06:53:11;18.30;71.20
4306;DHT22;2166;49.926;8.608;2023-09-19T06:55:39;18.30;71.50
4306;DHT22;2166;49.926;8.608;2023-09-19T06:58:07;18.30;71.20
4306;DHT22;2166;49.926;8.608;2023-09-19T07:00:37;18.40;71.90
4306;DHT22;2166;49.926;8.608;2023-09-19T07:03:07;18.40;71.70
4306;DHT22;2166;49.926;8.608;2023-09-19T07:05:40;18.50;72.00
4306;DHT22;2166;49.926;8.608;2023-09-19T07:08:10;18.70;72.10
4306;DHT22;2166;49.926;8.608;2023-09-19T07:10:40;18.80;72.40
4306;DHT22;2166;49.926;8.608;2023-09-19T07:13:16;18.70;72.80
4306;DHT22;2166;49.926;8.608;2023-09-19T07:15:44;18.90;72.00
4306;DHT22;2166;49.926;8.608;2023-09-19T07:18:15;19.10;72.90
4306;DHT22;2166;49.926;8.608;2023-09-19T07:20:46;19.20;73.00
4306;DHT22;2166;49.926;8.608;2023-09-19T07:23:17;19.20;73.00
4306;DHT22;2166;49.926;8.608;2023-09-19T07:25:46;19.10;72.80
4306;DHT22;2166;49.926;8.608;2023-09-19T07:28:16;19.10;72.90
4306;DHT22;2166;49.926;8.608;2023-09-19T07:30:44;19.20;73.10
4306;DHT22;2166;49.926;8.608;2023-09-19T07:33:12;19.20;73.00
4306;DHT22;2166;49.926;8.608;2023-09-19T07:35:47;19.10;73.00
4306;DHT22;2166;49.926;8.608;2023-09-19T07:38:15;19.20;73.00
4306;DHT22;2166;49.926;8.608;2023-09-19T07:40:44;19.40;73.00
4306;DHT22;2166;49.926;8.608;2023-09-19T07:43:13;19.70;73.70
4306;DHT22;2166;49.926;8.608;2023-09-19T07:45:41;19.70;73.20
4306;DHT22;2166;49.926;8.608;2023-09-19T07:48:10;19.80;73.30
4306;DHT22;2166;49.926;8.608;2023-09-19T07:51:06;19.90;73.20
4306;DHT22;2166;49.926;8.608;2023-09-19T07:53:35;20.10;73.50
4306;DHT22;2166;49.926;8.608;2023-09-19T07:56:05;20.60;73.30
4306;DHT22;2166;49.926;8.608;2023-09-19T07:58:34;21.10;72.80
4306;DHT22;2166;49.926;8.608;2023-09-19T08:01:05;21.20;72.70
4306;DHT22;2166;49.926;8.608;2023-09-19T08:03:34;21.20;72.70
4306;DHT22;2166;49.926;8.608;2023-09-19T08:06:09;21.30;71.80
4306;DHT22;2166;49.926;8.608;2023-09-19T08:08:37;21.10;71.60
4306;DHT22;2166;49.926;8.608;2023-09-19T08:11:06;21.10;72.10
4306;DHT22;2166;49.926;8.608;2023-09-19T08:13:39;20.80;71.90
4306;DHT22;2166;49.926;8.608;2023-09-19T08:16:10;20.70;72.20
4306;DHT22;2166;49.926;8.608;2023-09-19T08:18:38;20.80;71.70
4306;DHT22;2166;49.926;8.608;2023-09-19T08:21:08;20.80;71.90
4306;DHT22;2166;49.926;8.608;2023-09-19T08:23:38;20.40;70.80
4306;DHT22;2166;49.926;8.608;2023-09-19T08:26:07;20.20;71.10
4306;DHT22;2166;49.926;8.608;2023-09-19T08:28:36;20.00;70.90
4306;DHT22;2166;49.926;8.608;2023-09-19T08:31:08;19.60;70.90
4306;DHT22;2166;49.926;8.608;2023-09-19T08:33:37;19.50;72.30
4306;DHT22;2166;49.926;8.608;2023-09-19T08:36:09;19.60;71.70
4306;DHT22;2166;49.926;8.608;2023-09-19T08:38:41;19.60;71.30
4306;DHT22;2166;49.926;8.608;2023-09-19T08:41:09;19.70;71.80
4306;DHT22;2166;49.926;8.608;2023-09-19T08:43:37;20.00;71.80
4306;DHT22;2166;49.926;8.608;2023-09-19T08:46:10;20.30;71.30
4306;DHT22;2166;49.926;8.608;2023-09-19T08:48:46;20.60;69.10
4306;DHT22;2166;49.926;8.608;2023-09-19T08:51:26;20.40;69.80
4306;DHT22;2166;49.926;8.608;2023-09-19T08:54:01;20.30;69.50
4306;DHT22;2166;49.926;8.608;2023-09-19T08:56:32;20.40;68.10
4306;DHT22;2166;49.926;8.608;2023-09-19T08:59:03;20.90;68.40
4306;DHT22;2166;49.926;8.608;2023-09-19T09:01:35;21.40;66.60
4306;DHT22;2166;49.926;8.608;2023-09-19T09:04:08;22.00;64.60
4306;DHT22;2166;49.926;8.608;2023-09-19T09:06:42;22.40;63.70
4306;DHT22;2166;49.926;8.608;2023-09-19T09:09:12;22.90;62.80
4306;DHT22;2166;49.926;8.608;2023-09-19T09:11:41;23.30;62.40
4306;DHT22;2166;49.926;8.608;2023-09-19T09:14:09;23.30;62.60
4306;DHT22;2166;49.926;8.608;2023-09-19T09:16:38;23.10;61.50
4306;DHT22;2166;49.926;8.608;2023-09-19T09:19:07;22.50;62.60
4306;DHT22;2166;49.926;8.608;2023-09-19T09:21:35;22.10;63.60
4306;DHT22;2166;49.926;8.608;2023-09-19T09:24:27;21.80;64.60
4306;DHT22;2166;49.926;8.608;2023-09-19T09:26:57;21.80;65.20
4306;DHT22;2166;49.926;8.608;2023-09-19T09:29:41;21.80;66.10
4306;DHT22;2166;49.926;8.608;2023-09-19T09:32:23;21.90;65.20
4306;DHT22;2166;49.926;8.608;2023-09-19T09:34:53;22.10;63.60
4306;DHT22;2166;49.926;8.608;2023-09-19T09:37:27;22.10;63.10
4306;DHT22;2166;49.926;8.608;2023-09-19T09:40:00;22.20;62.90
4306;DHT22;2166;49.926;8.608;2023-09-19T09:42:46;22.60;62.70
4306;DHT22;2166;49.926;8.608;2023-09-19T09:45:22;23.00;61.00
4306;DHT22;2166;49.926;8.608;2023-09-19T09:48:05;23.10;60.80
4306;DHT22;2166;49.926;8.608;2023-09-19T09:50:47;23.10;61.20
4306;DHT22;2166;49.926;8.608;2023-09-19T09:53:24;22.90;61.60
4306;DHT22;2166;49.926;8.608;2023-09-19T09:56:00;22.40;62.00
4306;DHT22;2166;49.926;8.608;2023-09-19T09:58:29;22.20;64.10
4306;DHT22;2166;49.926;8.608;2023-09-19T10:00:59;22.10;63.60
4306;DHT22;2166;49.926;8.608;2023-09-19T10:03:36;22.20;64.90
4306;DHT22;2166;49.926;8.608;2023-09-19T10:06:11;22.30;64.10
4306;DHT22;2166;49.926;8.608;2023-09-19T10:09:03;22.20;64.20
4306;DHT22;2166;49.926;8.608;2023-09-19T10:11:42;22.20;64.20
4306;DHT22;2166;49.926;8.608;2023-09-19T10:14:12;22.80;63.30
4306;DHT22;2166;49.926;8.608;2023-09-19T10:16:45;23.00;62.20
4306;DHT22;2166;49.926;8.608;2023-09-19T10:19:23;24.00;59.70
4306;DHT22;2166;49.926;8.608;2023-09-19T10:21:54;24.40;57.70
4306;DHT22;2166;49.926;8.608;2023-09-19T10:24:24;24.10;58.20
4306;DHT22;2166;49.926;8.608;2023-09-19T10:26:57;24.50;57.00
4306;DHT22;2166;49.926;8.608;2023-09-19T10:29:28;25.40;55.40
4306;DHT22;2166;49.926;8.608;2023-09-19T10:31:59;25.70;52.30
4306;DHT22;2166;49.926;8.608;2023-09-19T10:34:31;25.40;51.60
4306;DHT22;2166;49.926;8.608;2023-09-19T10:37:02;25.30;51.20
4306;DHT22;2166;49.926;8.608;2023-09-19T10:39:33;25.40;50.10
4306;DHT22;2166;49.926;8.608;2023-09-19T10:42:04;25.30;51.00
4306;DHT22;2166;49.926;8.608;2023-09-19T10:44:34;25.70;50.10
4306;DHT22;2166;49.926;8.608;2023-09-19T10:47:07;25.80;50.20
4306;DHT22;2166;49.926;8.608;2023-09-19T10:49:43;26.60;48.90
4306;DHT22;2166;49.926;8.608;2023-09-19T10:52:14;27.30;48.50
4306;DHT22;2166;49.926;8.608;2023-09-19T10:54:48;27.10;47.40
4306;DHT22;2166;49.926;8.608;2023-09-19T10:57:21;26.90;48.10
4306;DHT22;2166;49.926;8.608;2023-09-19T11:00:04;26.90;48.50
4306;DHT22;2166;49.926;8.608;2023-09-19T11:03:16;27.60;46.80
4306;DHT22;2166;49.926;8.608;2023-09-19T11:06:01;27.80;46.90
4306;DHT22;2166;49.926;8.608;2023-09-19T11:08:55;28.20;46.00
4306;DHT22;2166;49.926;8.608;2023-09-19T11:11:45;28.20;46.20
4306;DHT22;2166;49.926;8.608;2023-09-19T11:14:41;28.30;46.00
4306;DHT22;2166;49.926;8.608;2023-09-19T11:17:42;28.60;45.60
4306;DHT22;2166;49.926;8.608;2023-09-19T11:20:25;29.40;43.20
4306;DHT22;2166;49.926;8.608;2023-09-19T11:23:22;29.10;44.00
4306;DHT22;2166;49.926;8.608;2023-09-19T11:25:50;28.40;45.00
4306;DHT22;2166;49.926;8.608;2023-09-19T11:28:33;28.20;46.30
4306;DHT22;2166;49.926;8.608;2023-09-19T11:31:42;27.60;46.30
4306;DHT22;2166;49.926;8.608;2023-09-19T11:34:40;27.00;47.50
4306;DHT22;2166;49.926;8.608;2023-09-19T11:40:46;26.70;48.60
4306;DHT22;2166;49.926;8.608;2023-09-19T11:43:29;26.90;46.60
4306;DHT22;2166;49.926;8.608;2023-09-19T11:46:05;26.80;46.30
4306;DHT22;2166;49.926;8.608;2023-09-19T11:48:38;26.60;47.00
4306;DHT22;2166;49.926;8.608;2023-09-19T11:51:16;26.40;47.90
4306;DHT22;2166;49.926;8.608;2023-09-19T11:53:50;25.70;48.00
4306;DHT22;2166;49.926;8.608;2023-09-19T11:56:21;25.70;48.40
4306;DHT22;2166;49.926;8.608;2023-09-19T11:58:51;25.60;48.90
4306;DHT22;2166;49.926;8.608;2023-09-19T12:01:24;26.00;48.60
4306;DHT22;2166;49.926;8.608;2023-09-19T12:03:58;26.40;48.00
4306;DHT22;2166;49.926;8.608;2023-09-19T12:06:28;26.80;48.00
4306;DHT22;2166;49.926;8.608;2023-09-19T12:08:58;27.00;47.40
4306;DHT22;2166;49.926;8.608;2023-09-19T12:11:30;27.60;46.20
4306;DHT22;2166;49.926;8.608;2023-09-19T12:14:02;28.10;45.60
4306;DHT22;2166;49.926;8.608;2023-09-19T12:16:31;27.90;45.60
4306;DHT22;2166;49.926;8.608;2023-09-19T12:19:21;27.50;45.90
4306;DHT22;2166;49.926;8.608;2023-09-19T12:21:55;26.50;47.90
4306;DHT22;2166;49.926;8.608;2023-09-19T12:24:26;27.00;47.50
4306;DHT22;2166;49.926;8.608;2023-09-19T12:27:02;27.30;46.50
4306;DHT22;2166;49.926;8.608;2023-09-19T12:29:42;27.50;47.10
4306;DHT22;2166;49.926;8.608;2023-09-19T12:32:14;27.20;46.30
4306;DHT22;2166;49.926;8.608;2023-09-19T12:34:52;27.20;46.80
4306;DHT22;2166;49.926;8.608;2023-09-19T12:37:22;27.50;46.10
4306;DHT22;2166;49.926;8.608;2023-09-19T12:40:04;27.70;45.50
4306;DHT22;2166;49.926;8.608;2023-09-19T12:42:42;27.40;46.50
4306;DHT22;2166;49.926;8.608;2023-09-19T12:45:11;27.90;44.60
4306;DHT22;2166;49.926;8.608;2023-09-19T12:51:00;27.50;45.40
4306;DHT22;2166;49.926;8.608;2023-09-19T12:53:33;27.40;46.40
4306;DHT22;2166;49.926;8.608;2023-09-19T12:56:09;27.80;45.30
4306;DHT22;2166;49.926;8.608;2023-09-19T12:58:48;28.00;44.30
4306;DHT22;2166;49.926;8.608;2023-09-19T13:01:17;28.30;44.80
4306;DHT22;2166;49.926;8.608;2023-09-19T13:03:46;29.00;43.90
4306;DHT22;2166;49.926;8.608;2023-09-19T13:06:39;29.60;42.20
4306;DHT22;2166;49.926;8.608;2023-09-19T13:09:11;28.80;43.10
4306;DHT22;2166;49.926;8.608;2023-09-19T13:11:42;27.60;44.20
4306;DHT22;2166;49.926;8.608;2023-09-19T13:14:17;26.60;46.70
4306;DHT22;2166;49.926;8.608;2023-09-19T13:16:53;26.10;47.40
4306;DHT22;2166;49.926;8.608;2023-09-19T13:19:40;25.80;47.60
4306;DHT22;2166;49.926;8.608;2023-09-19T13:22:38;25.50;48.90
4306;DHT22;2166;49.926;8.608;2023-09-19T13:25:09;25.30;49.00
4306;DHT22;2166;49.926;8.608;2023-09-19T13:27:42;25.40;49.50
4306;DHT22;2166;49.926;8.608;2023-09-19T13:30:12;25.80;48.30
4306;DHT22;2166;49.926;8.608;2023-09-19T13:32:41;26.10;47.80
4306;DHT22;2166;49.926;8.608;2023-09-19T13:35:11;26.20;47.80
4306;DHT22;2166;49.926;8.608;2023-09-19T13:37:41;25.90;48.20
4306;DHT22;2166;49.926;8.608;2023-09-19T13:40:14;25.30;48.50
4306;DHT22;2166;49.926;8.608;2023-09-19T13:42:43;24.90;50.00
4306;DHT22;2166;49.926;8.608;2023-09-19T13:45:12;24.90;49.70
4306;DHT22;2166;49.926;8.608;2023-09-19T13:47:45;24.70;50.40
4306;DHT22;2166;49.926;8.608;2023-09-19T13:50:14;24.80;50.10
4306;DHT22;2166;49.926;8.608;2023-09-19T13:52:43;25.10;50.80
4306;DHT22;2166;49.926;8.608;2023-09-19T13:55:14;25.20;49.00
4306;DHT22;2166;49.926;8.608;2023-09-19T13:57:47;25.20;50.40
4306;DHT22;2166;49.926;8.608;2023-09-19T14:00:17;25.40;49.80
4306;DHT22;2166;49.926;8.608;2023-09-19T14:02:45;25.10;50.30
4306;DHT22;2166;49.926;8.608;2023-09-19T14:05:16;24.50;50.70
4306;DHT22;2166;49.926;8.608;2023-09-19T14:07:46;24.20;52.10
4306;DHT22;2166;49.926;8.608;2023-09-19T14:10:15;24.10;52.40
4306;DHT22;2166;49.926;8.608;2023-09-19T14:12:45;23.80;53.00
4306;DHT22;2166;49.926;8.608;2023-09-19T14:15:13;23.50;53.90
4306;DHT22;2166;49.926;8.608;2023-09-19T14:17:41;23.60;54.50
4306;DHT22;2166;49.926;8.608;2023-09-19T14:20:12;23.70;53.60
4306;DHT22;2166;49.926;8.608;2023-09-19T14:22:41;23.80;54.20
4306;DHT22;2166;49.926;8.608;2023-09-19T14:25:11;24.00;54.20
4306;DHT22;2166;49.926;8.608;2023-09-19T14:27:39;24.20;52.90
4306;DHT22;2166;49.926;8.608;2023-09-19T14:30:09;24.20;53.00
4306;DHT22;2166;49.926;8.608;2023-09-19T14:32:37;24.20;52.40
4306;DHT22;2166;49.926;8.608;2023-09-19T14:35:07;24.00;53.00
4306;DHT22;2166;49.926;8.608;2023-09-19T14:37:37;23.70;53.40
4306;DHT22;2166;49.926;8.608;2023-09-19T14:40:08;23.60;54.20
4306;DHT22;2166;49.926;8.608;2023-09-19T14:42:39;23.40;55.10
4306;DHT22;2166;49.926;8.608;2023-09-19T14:45:08;23.30;55.60
4306;DHT22;2166;49.926;8.608;2023-09-19T14:47:38;23.50;55.50
4306;DHT22;2166;49.926;8.608;2023-09-19T14:50:07;23.90;54.50
4306;DHT22;2166;49.926;8.608;2023-09-19T14:52:36;24.00;53.60
4306;DHT22;2166;49.926;8.608;2023-09-19T14:55:05;23.90;54.00
4306;DHT22;2166;49.926;8.608;2023-09-19T14:57:38;24.00;55.10
4306;DHT22;2166;49.926;8.608;2023-09-19T15:00:07;24.10;54.40
4306;DHT22;2166;49.926;8.608;2023-09-19T15:02:39;24.10;54.30
4306;DHT22;2166;49.926;8.608;2023-09-19T15:05:08;24.20;54.20
4306;DHT22;2166;49.926;8.608;2023-09-19T15:07:38;24.10;54.00
4306;DHT22;2166;49.926;8.608;2023-09-19T15:10:08;23.90;54.50
4306;DHT22;2166;49.926;8.608;2023-09-19T15:12:38;24.00;54.50
4306;DHT22;2166;49.926;8.608;2023-09-19T15:15:07;24.10;54.90
4306;DHT22;2166;49.926;8.608;2023-09-19T15:17:37;24.20;54.80
4306;DHT22;2166;49.926;8.608;2023-09-19T15:20:06;24.40;54.50
4306;DHT22;2166;49.926;8.608;2023-09-19T15:22:35;24.50;53.90
4306;DHT22;2166;49.926;8.608;2023-09-19T15:25:04;24.40;54.40
4306;DHT22;2166;49.926;8.608;2023-09-19T15:27:34;24.10;55.10
4306;DHT22;2166;49.926;8.608;2023-09-19T15:30:06;24.20;55.00
4306;DHT22;2166;49.926;8.608;2023-09-19T15:32:35;24.20;55.80
4306;DHT22;2166;49.926;8.608;2023-09-19T15:35:04;24.50;55.00
4306;DHT22;2166;49.926;8.608;2023-09-19T15:37:34;24.60;54.30
4306;DHT22;2166;49.926;8.608;2023-09-19T15:40:04;24.60;55.30
4306;DHT22;2166;49.926;8.608;2023-09-19T15:42:35;24.40;55.70
4306;DHT22;2166;49.926;8.608;2023-09-19T15:45:06;24.40;56.30
4306;DHT22;2166;49.926;8.608;2023-09-19T15:47:37;24.30;56.00
4306;DHT22;2166;49.926;8.608;2023-09-19T15:50:06;23.90;56.00
4306;DHT22;2166;49.926;8.608;2023-09-19T15:52:36;23.70;56.70
4306;DHT22;2166;49.926;8.608;2023-09-19T15:55:06;23.30;57.20
4306;DHT22;2166;49.926;8.608;2023-09-19T15:57:35;23.30;57.90
4306;DHT22;2166;49.926;8.608;2023-09-19T16:00:06;23.30;57.60
4306;DHT22;2166;49.926;8.608;2023-09-19T16:02:40;23.40;58.20
4306;DHT22;2166;49.926;8.608;2023-09-19T16:05:08;23.70;58.20
4306;DHT22;2166;49.926;8.608;2023-09-19T16:07:39;23.80;57.10
4306;DHT22;2166;49.926;8.608;2023-09-19T16:10:07;23.60;57.30
4306;DHT22;2166;49.926;8.608;2023-09-19T16:12:36;23.40;57.60
4306;DHT22;2166;49.926;8.608;2023-09-19T16:15:07;23.10;58.70
4306;DHT22;2166;49.926;8.608;2023-09-19T16:17:38;22.90;60.10
4306;DHT22;2166;49.926;8.608;2023-09-19T16:20:07;22.70;60.30
4306;DHT22;2166;49.926;8.608;2023-09-19T16:22:41;22.70;60.70
4306;DHT22;2166;49.926;8.608;2023-09-19T16:25:13;22.50;61.30
4306;DHT22;2166;49.926;8.608;2023-09-19T16:27:42;22.40;62.10
4306;DHT22;2166;49.926;8.608;2023-09-19T16:30:14;22.40;62.30
4306;DHT22;2166;49.926;8.608;2023-09-19T16:32:45;22.40;62.50
4306;DHT22;2166;49.926;8.608;2023-09-19T16:35:14;22.60;62.40
4306;DHT22;2166;49.926;8.608;2023-09-19T16:37:44;22.50;62.20
4306;DHT22;2166;49.926;8.608;2023-09-19T16:40:12;22.50;63.00